Time;durP1;ratioP1;P1;durP2;ratioP2;P2;SDS_P1;SDS_P2;PMS_P1;PMS_P2;Temp;Humidity;BMP_temperature;BMP_pressure;BME280_temperature;BME280_humidity;BME280_pressure;Samples;Min_cycle;Max_cycle;Signal;HPM_P1;HPM_P2
2023/09/08 00:01:16;;;;;;;10.33;9.20;;;20.30;99.90;;;;;;5011436;28;20183;-63
2023/09/08 00:03:41;;;;;;;9.10;8.20;;;20.30;99.90;;;;;;5009198;28;20183;-62
2023/09/08 00:06:07;;;;;;;10.43;9.53;;;20.20;99.90;;;;;;5011515;28;20187;-63
2023/09/08 00:08:33;;;;;;;9.87;8.70;;;20.20;99.90;;;;;;5012045;28;20183;-63
2023/09/08 00:10:58;;;;;;;9.50;8.70;;;20.20;99.90;;;;;;5010088;28;20210;-62
2023/09/08 00:13:24;;;;;;;10.43;9.33;;;20.20;99.90;;;;;;5010603;28;20589;-63
2023/09/08 00:15:50;;;;;;;9.47;8.67;;;20.20;99.90;;;;;;5011378;28;20266;-69
2023/09/08 00:18:15;;;;;;;10.50;9.60;;;20.30;99.90;;;;;;5010269;28;20552;-63
2023/09/08 00:20:41;;;;;;;9.37;8.37;;;20.30;99.90;;;;;;5010420;28;20190;-62
2023/09/08 00:23:07;;;;;;;9.47;8.67;;;20.20;99.90;;;;;;5011720;28;20222;-63
2023/09/08 00:25:34;;;;;;;9.80;8.80;;;20.20;99.90;;;;;;5010735;28;20457;-63
2023/09/08 00:28:00;;;;;;;10.23;9.23;;;20.20;99.90;;;;;;5009530;28;20183;-63
2023/09/08 00:30:26;;;;;;;11.97;10.87;;;20.10;99.90;;;;;;5011900;28;20497;-62
2023/09/08 00:32:52;;;;;;;10.57;9.53;;;20.10;99.90;;;;;;5010192;28;20505;-62
2023/09/08 00:35:17;;;;;;;10.73;9.73;;;19.90;99.90;;;;;;5010938;28;20210;-62
2023/09/08 00:37:43;;;;;;;10.40;9.40;;;19.90;99.90;;;;;;5011963;28;20227;-62
2023/09/08 00:40:10;;;;;;;11.00;10.10;;;19.90;99.90;;;;;;5014563;28;20179;-63
2023/09/08 00:42:36;;;;;;;11.53;10.53;;;19.90;99.90;;;;;;5014282;28;20190;-63
2023/09/08 00:45:02;;;;;;;11.50;10.20;;;19.90;99.90;;;;;;5013552;28;20417;-63
2023/09/08 00:47:28;;;;;;;10.87;9.87;;;19.90;99.90;;;;;;5003282;28;20434;-63
2023/09/08 00:49:54;;;;;;;11.20;10.27;;;19.90;99.90;;;;;;5014172;28;20825;-63
2023/09/08 00:52:20;;;;;;;10.77;9.87;;;19.90;99.90;;;;;;5014838;28;20505;-63
2023/09/08 00:54:45;;;;;;;10.97;9.97;;;19.90;99.90;;;;;;5012617;28;20182;-62
2023/09/08 00:57:11;;;;;;;10.20;9.37;;;19.90;99.90;;;;;;5009908;28;20214;-63
2023/09/08 00:59:37;;;;;;;10.07;9.10;;;19.80;99.90;;;;;;5013118;28;20636;-63
2023/09/08 01:02:04;;;;;;;11.67;10.27;;;19.80;99.90;;;;;;5010527;28;20272;-63
2023/09/08 01:04:31;;;;;;;10.70;9.70;;;19.80;99.90;;;;;;5013333;28;20437;-64
2023/09/08 01:06:58;;;;;;;10.37;9.47;;;19.80;99.90;;;;;;5013467;28;20901;-63
2023/09/08 01:09:24;;;;;;;11.90;9.37;;;19.80;99.90;;;;;;5014647;28;20422;-63
2023/09/08 01:11:50;;;;;;;11.80;9.40;;;19.80;99.90;;;;;;5012833;28;20783;-63
2023/09/08 01:14:22;;;;;;;11.37;10.33;;;19.80;99.90;;;;;;5013366;28;20775;-63
2023/09/08 01:16:48;;;;;;;11.03;9.93;;;19.70;99.90;;;;;;5013546;28;20413;-63
2023/09/08 01:19:16;;;;;;;10.97;10.07;;;19.70;99.90;;;;;;5011440;28;20430;-64
2023/09/08 01:22:03;;;;;;;10.60;9.57;;;19.70;99.90;;;;;;5029154;28;20418;-60
2023/09/08 01:24:51;;;;;;;11.47;10.37;;;19.70;99.90;;;;;;5013614;28;20422;-63
2023/09/08 01:27:18;;;;;;;11.53;10.53;;;19.70;99.90;;;;;;5013464;28;20426;-63
2023/09/08 01:29:45;;;;;;;12.47;11.20;;;19.60;99.90;;;;;;5012481;28;20452;-62
2023/09/08 01:32:11;;;;;;;11.67;10.67;;;19.60;99.90;;;;;;5013242;28;20468;-63
2023/09/08 01:34:39;;;;;;;11.33;10.33;;;19.60;99.90;;;;;;5013004;28;20425;-63
2023/09/08 01:37:06;;;;;;;12.50;11.20;;;19.60;99.90;;;;;;5012553;28;20649;-62
2023/09/08 01:39:32;;;;;;;13.13;11.73;;;19.50;99.90;;;;;;5013198;28;20822;-63
2023/09/08 01:41:58;;;;;;;12.17;11.23;;;19.50;99.90;;;;;;5013538;28;20418;-63
2023/09/08 01:44:24;;;;;;;12.63;11.50;;;19.50;99.90;;;;;;5013205;28;20211;-63
2023/09/08 01:46:51;;;;;;;11.50;10.53;;;19.50;99.90;;;;;;5012489;28;20194;-63
2023/09/08 01:49:17;;;;;;;11.80;10.70;;;19.50;99.90;;;;;;5011512;28;20193;-63
2023/09/08 01:51:42;;;;;;;12.53;11.40;;;19.50;99.90;;;;;;5012498;28;20520;-62
2023/09/08 01:54:09;;;;;;;11.80;10.70;;;19.50;99.90;;;;;;5011583;28;20226;-63
2023/09/08 01:56:35;;;;;;;12.90;11.60;;;19.50;99.90;;;;;;5012893;28;20179;-63
2023/09/08 01:59:01;;;;;;;11.87;10.77;;;19.40;99.90;;;;;;5012080;28;20473;-63
2023/09/08 02:01:26;;;;;;;11.90;10.80;;;19.40;99.90;;;;;;5010913;28;20238;-63
2023/09/08 02:03:52;;;;;;;12.40;11.20;;;19.30;99.90;;;;;;5013032;28;20622;-62
2023/09/08 02:06:18;;;;;;;11.80;10.80;;;19.40;99.90;;;;;;5013301;28;20221;-63
2023/09/08 02:08:43;;;;;;;17.30;12.83;;;19.30;99.90;;;;;;5012538;28;20523;-63
2023/09/08 02:11:09;;;;;;;11.77;10.67;;;19.30;99.90;;;;;;5013469;28;20628;-63
2023/09/08 02:13:35;;;;;;;12.10;11.00;;;19.30;99.90;;;;;;5012621;28;20276;-62
2023/09/08 02:16:00;;;;;;;12.87;11.60;;;19.30;99.90;;;;;;5011906;28;20234;-63
2023/09/08 02:18:26;;;;;;;11.60;10.50;;;19.40;99.90;;;;;;5012218;28;20242;-62
2023/09/08 02:20:52;;;;;;;11.33;10.33;;;19.40;99.90;;;;;;5012820;28;20230;-62
2023/09/08 02:23:18;;;;;;;11.10;10.07;;;19.40;99.90;;;;;;5012480;28;20175;-63
2023/09/08 02:25:43;;;;;;;12.30;11.20;;;19.40;99.90;;;;;;5013042;28;20186;-63
2023/09/08 02:28:09;;;;;;;11.53;10.50;;;19.40;99.90;;;;;;5011484;28;20670;-62
2023/09/08 02:30:35;;;;;;;13.17;11.83;;;19.40;99.90;;;;;;5011682;28;20218;-62
2023/09/08 02:33:02;;;;;;;12.70;11.40;;;19.40;99.90;;;;;;5011668;28;20207;-62
2023/09/08 02:35:28;;;;;;;11.70;10.53;;;19.40;99.90;;;;;;5013192;28;20501;-63
2023/09/08 02:37:54;;;;;;;11.70;10.70;;;19.40;99.90;;;;;;5011549;28;20604;-63
2023/09/08 02:40:20;;;;;;;11.97;10.97;;;19.40;99.90;;;;;;5012144;28;20183;-63
2023/09/08 02:42:46;;;;;;;12.00;11.00;;;19.40;99.90;;;;;;5013168;28;20179;-63
2023/09/08 02:45:12;;;;;;;11.87;10.83;;;19.30;99.90;;;;;;5011265;28;20429;-63
2023/09/08 02:47:37;;;;;;;13.20;11.93;;;19.30;99.90;;;;;;5012024;28;20433;-63
2023/09/08 02:50:04;;;;;;;12.37;11.47;;;19.30;99.90;;;;;;5012781;28;20245;-63
2023/09/08 02:52:30;;;;;;;12.50;11.30;;;19.30;99.90;;;;;;5012025;28;20587;-63
2023/09/08 02:54:56;;;;;;;12.50;11.50;;;19.30;99.90;;;;;;5011281;28;20426;-63
2023/09/08 02:57:21;;;;;;;11.83;10.83;;;19.30;99.90;;;;;;5013164;28;20558;-63
2023/09/08 02:59:51;;;;;;;13.27;12.27;;;19.30;99.90;;;;;;5010007;28;20187;-62
2023/09/08 03:02:17;;;;;;;13.00;11.83;;;19.30;99.90;;;;;;5011546;28;20183;-63
2023/09/08 03:04:42;;;;;;;12.77;11.57;;;19.30;99.90;;;;;;5011475;28;20910;-63
2023/09/08 03:07:08;;;;;;;12.00;11.00;;;19.30;99.90;;;;;;5010646;28;20187;-62
2023/09/08 03:09:34;;;;;;;12.53;11.33;;;19.20;99.90;;;;;;5011737;28;20515;-63
2023/09/08 03:12:00;;;;;;;11.97;10.97;;;19.20;99.90;;;;;;5011899;28;20186;-62
2023/09/08 03:14:26;;;;;;;12.20;11.17;;;19.10;99.90;;;;;;5011311;28;20430;-62
2023/09/08 03:16:51;;;;;;;13.10;11.80;;;19.10;99.90;;;;;;5011085;28;20266;-62
2023/09/08 03:19:17;;;;;;;11.93;11.03;;;19.10;99.90;;;;;;5012255;28;20265;-63
2023/09/08 03:21:43;;;;;;;12.73;11.57;;;19.10;99.90;;;;;;5011817;28;20218;-63
2023/09/08 03:24:08;;;;;;;14.13;12.63;;;19.00;99.90;;;;;;5010786;28;20587;-63
2023/09/08 03:26:34;;;;;;;12.37;11.27;;;19.00;99.90;;;;;;5011026;28;20275;-63
2023/09/08 03:29:00;;;;;;;13.40;12.10;;;19.00;99.90;;;;;;5011910;28;20187;-63
2023/09/08 03:31:26;;;;;;;13.70;11.83;;;19.00;99.90;;;;;;5011206;28;20190;-63
2023/09/08 03:33:52;;;;;;;12.63;11.43;;;19.00;99.90;;;;;;5010403;28;20254;-62
2023/09/08 03:36:18;;;;;;;13.00;12.00;;;19.00;99.90;;;;;;5012645;28;20525;-63
2023/09/08 03:38:44;;;;;;;12.37;11.30;;;19.00;99.90;;;;;;5008114;28;20324;-63
2023/09/08 03:41:10;;;;;;;12.00;11.00;;;19.00;99.90;;;;;;5009648;28;20225;-63
2023/09/08 03:43:36;;;;;;;12.67;11.60;;;19.00;99.90;;;;;;5012474;28;20183;-63
2023/09/08 03:46:02;;;;;;;11.73;10.63;;;18.90;99.90;;;;;;5010395;28;20944;-63
2023/09/08 03:48:27;;;;;;;11.50;10.40;;;19.00;99.90;;;;;;5010282;28;20183;-62
2023/09/08 03:50:53;;;;;;;11.70;10.50;;;18.90;99.90;;;;;;5011990;28;20186;-62
2023/09/08 03:53:19;;;;;;;12.37;11.13;;;18.90;99.90;;;;;;5010922;28;20273;-62
2023/09/08 03:55:45;;;;;;;11.70;10.57;;;18.90;99.90;;;;;;5009559;28;20179;-63
2023/09/08 03:58:10;;;;;;;12.20;11.20;;;18.90;99.90;;;;;;5010355;28;20218;-63
2023/09/08 04:00:36;;;;;;;11.80;10.60;;;18.90;99.90;;;;;;5010732;28;20182;-63
2023/09/08 04:03:02;;;;;;;13.10;11.03;;;18.90;99.90;;;;;;5010258;28;20522;-63
2023/09/08 04:05:28;;;;;;;12.50;11.40;;;18.90;99.90;;;;;;5012358;28;20417;-63
2023/09/08 04:07:54;;;;;;;13.57;12.27;;;18.90;99.90;;;;;;5010507;28;20434;-62
2023/09/08 04:10:22;;;;;;;13.47;12.37;;;18.90;99.90;;;;;;5011196;28;20517;-63
2023/09/08 04:12:52;;;;;;;12.50;11.40;;;18.80;99.90;;;;;;5008419;28;20469;-63
2023/09/08 04:15:18;;;;;;;13.63;12.27;;;18.80;99.90;;;;;;5015332;28;20437;-60
2023/09/08 04:17:45;;;;;;;13.50;12.20;;;18.80;99.90;;;;;;5009401;28;20507;-63
2023/09/08 04:20:11;;;;;;;14.03;12.80;;;18.80;99.90;;;;;;5014096;28;20202;-62
2023/09/08 04:22:37;;;;;;;13.40;12.00;;;18.80;99.90;;;;;;5015284;28;20957;-63
2023/09/08 04:25:03;;;;;;;13.87;11.73;;;18.80;99.90;;;;;;5013965;28;20430;-63
2023/09/08 04:27:28;;;;;;;12.53;11.33;;;18.80;99.90;;;;;;5004222;28;20227;-63
2023/09/08 04:29:54;;;;;;;17.13;11.80;;;18.80;99.90;;;;;;4996854;28;20439;-61
2023/09/08 04:32:20;;;;;;;13.13;11.93;;;18.70;99.90;;;;;;5015950;28;20179;-63
2023/09/08 04:34:45;;;;;;;12.47;11.30;;;18.70;99.90;;;;;;5011520;28;20182;-64
2023/09/08 04:37:11;;;;;;;12.20;11.00;;;18.70;99.90;;;;;;5011265;28;20293;-64
2023/09/08 04:39:37;;;;;;;12.10;11.00;;;18.70;99.90;;;;;;4997289;28;20176;-63
2023/09/08 04:42:03;;;;;;;12.80;11.50;;;18.70;99.90;;;;;;5004380;28;20179;-63
2023/09/08 04:44:29;;;;;;;12.70;11.53;;;18.70;99.90;;;;;;5008975;28;20305;-62
2023/09/08 04:46:55;;;;;;;12.77;11.70;;;18.70;99.90;;;;;;5005690;28;20502;-62
2023/09/08 04:49:21;;;;;;;13.47;12.23;;;18.60;99.90;;;;;;5014116;28;20553;-63
2023/09/08 04:51:46;;;;;;;15.13;12.50;;;18.60;99.90;;;;;;5012898;28;20187;-63
2023/09/08 04:54:12;;;;;;;13.83;12.67;;;18.60;99.90;;;;;;5005986;28;20266;-63
2023/09/08 04:56:41;;;;;;;12.87;11.60;;;18.60;99.90;;;;;;4999222;28;20682;-64
2023/09/08 04:59:06;;;;;;;14.67;13.37;;;18.60;99.90;;;;;;5009016;28;20211;-63
2023/09/08 05:01:32;;;;;;;17.63;11.77;;;18.60;99.90;;;;;;5003889;28;20426;-64
2023/09/08 05:04:01;;;;;;;13.33;12.00;;;18.60;99.90;;;;;;4993756;28;20188;-63
2023/09/08 05:06:27;;;;;;;14.60;13.20;;;18.50;99.90;;;;;;5009324;28;20513;-63
2023/09/08 05:08:53;;;;;;;13.87;12.67;;;18.40;99.90;;;;;;4999016;28;20509;-63
2023/09/08 05:11:19;;;;;;;12.87;11.60;;;18.40;99.90;;;;;;5010870;28;20191;-63
2023/09/08 05:13:46;;;;;;;14.10;13.00;;;18.50;99.90;;;;;;5006136;28;20486;-64
2023/09/08 05:16:12;;;;;;;14.47;13.07;;;18.40;99.90;;;;;;5007871;28;20438;-63
2023/09/08 05:18:39;;;;;;;13.60;12.33;;;18.40;99.90;;;;;;4996462;28;20501;-64
2023/09/08 05:21:04;;;;;;;13.90;12.50;;;18.40;99.90;;;;;;5006402;28;20442;-63
2023/09/08 05:23:30;;;;;;;13.80;12.50;;;18.40;99.90;;;;;;5011541;28;20761;-63
2023/09/08 05:25:56;;;;;;;14.50;13.23;;;18.40;99.90;;;;;;5014979;28;20556;-63
2023/09/08 05:28:22;;;;;;;15.27;13.80;;;18.50;99.90;;;;;;5001899;28;20187;-63
2023/09/08 05:30:51;;;;;;;14.70;13.30;;;18.50;99.90;;;;;;5004213;28;20498;-63
2023/09/08 05:33:17;;;;;;;15.77;14.30;;;18.50;99.90;;;;;;5003978;28;20179;-63
2023/09/08 05:35:43;;;;;;;16.03;14.47;;;18.50;99.90;;;;;;5003799;28;20830;-63
2023/09/08 05:38:09;;;;;;;17.30;15.60;;;18.50;99.90;;;;;;5002391;28;20223;-62
2023/09/08 05:40:38;;;;;;;19.10;17.10;;;18.60;99.90;;;;;;5003326;28;20434;-65
2023/09/08 05:43:04;;;;;;;17.60;15.90;;;18.50;99.90;;;;;;5008774;28;20294;-65
2023/09/08 05:45:32;;;;;;;17.80;15.90;;;18.50;99.90;;;;;;5007265;28;20439;-65
2023/09/08 05:47:58;;;;;;;17.77;15.90;;;18.50;99.90;;;;;;4994922;28;20171;-66
2023/09/08 05:50:25;;;;;;;17.37;15.70;;;18.50;99.90;;;;;;5006541;28;20433;-65
2023/09/08 05:52:51;;;;;;;17.83;16.07;;;18.60;99.90;;;;;;5013486;28;20434;-66
2023/09/08 05:55:17;;;;;;;18.30;16.50;;;18.60;99.90;;;;;;5011529;28;20540;-66
2023/09/08 05:57:43;;;;;;;24.63;16.50;;;18.60;99.90;;;;;;5014194;28;20453;-66
2023/09/08 06:00:09;;;;;;;19.63;17.70;;;18.70;99.90;;;;;;5012380;28;20844;-65
2023/09/08 06:02:35;;;;;;;19.00;17.10;;;18.70;99.90;;;;;;5012950;28;20773;-65
2023/09/08 06:05:02;;;;;;;18.87;16.40;;;18.80;99.90;;;;;;5012711;28;20421;-65
2023/09/08 06:07:28;;;;;;;18.77;16.80;;;18.80;99.90;;;;;;5008108;28;20191;-70
2023/09/08 06:09:54;;;;;;;17.60;16.00;;;18.90;99.90;;;;;;5014080;28;20411;-69
2023/09/08 06:12:19;;;;;;;15.73;14.20;;;19.20;99.90;;;;;;5012376;28;20197;-69
2023/09/08 06:14:45;;;;;;;15.87;14.33;;;19.50;99.90;;;;;;5013033;28;20590;-69
2023/09/08 06:17:11;;;;;;;16.30;14.77;;;19.80;99.90;;;;;;5013175;28;20238;-69
2023/09/08 06:19:36;;;;;;;16.23;14.70;;;20.10;99.90;;;;;;5011575;28;20195;-70
2023/09/08 06:22:02;;;;;;;17.67;15.77;;;20.30;99.90;;;;;;5010224;28;20182;-69
2023/09/08 06:24:28;;;;;;;15.97;14.43;;;20.40;99.90;;;;;;5013605;28;20171;-73
2023/09/08 06:26:54;;;;;;;17.63;15.13;;;20.30;99.90;;;;;;5012689;28;20761;-75
2023/09/08 06:29:20;;;;;;;15.70;14.10;;;20.20;99.90;;;;;;5010543;28;20206;-74
2023/09/08 06:31:45;;;;;;;16.77;15.13;;;20.30;99.90;;;;;;5012824;28;20186;-72
2023/09/08 06:34:11;;;;;;;14.73;13.40;;;20.60;99.90;;;;;;5003639;28;20233;-73
2023/09/08 06:36:37;;;;;;;15.13;13.83;;;20.80;99.90;;;;;;5011711;28;20174;-72
2023/09/08 06:39:03;;;;;;;15.67;14.13;;;20.90;99.90;;;;;;5011289;28;20227;-73
2023/09/08 06:41:31;;;;;;;14.77;13.47;;;20.90;99.90;;;;;;5013289;28;20601;-72
2023/09/08 06:43:56;;;;;;;15.63;14.03;;;20.90;99.90;;;;;;5012155;28;20434;-73
2023/09/08 06:46:22;;;;;;;14.17;12.70;;;21.10;99.90;;;;;;5011809;28;20607;-73
2023/09/08 06:48:48;;;;;;;15.60;14.30;;;21.30;99.90;;;;;;5013357;28;20179;-71
2023/09/08 06:51:14;;;;;;;14.37;13.17;;;21.40;99.90;;;;;;5011588;28;20218;-69
2023/09/08 06:53:39;;;;;;;14.50;13.30;;;21.60;99.90;;;;;;5012623;28;20175;-68
2023/09/08 06:56:05;;;;;;;13.30;11.90;;;21.70;99.90;;;;;;5012489;28;20246;-67
2023/09/08 06:58:31;;;;;;;14.23;12.77;;;21.80;99.90;;;;;;5009157;28;20233;-66
2023/09/08 07:00:57;;;;;;;13.33;12.10;;;21.90;99.90;;;;;;5011808;28;20191;-69
2023/09/08 07:03:23;;;;;;;12.67;11.50;;;21.90;99.90;;;;;;5012088;28;20389;-67
2023/09/08 07:05:50;;;;;;;13.63;12.50;;;21.90;99.90;;;;;;4999574;28;20442;-71
2023/09/08 07:08:15;;;;;;;14.40;13.10;;;22.00;99.90;;;;;;5012282;28;20232;-72
2023/09/08 07:10:43;;;;;;;15.67;14.17;;;22.00;99.90;;;;;;5010406;28;20993;-70
2023/09/08 07:13:08;;;;;;;18.50;16.53;;;22.10;99.90;;;;;;5009863;28;20182;-67
2023/09/08 07:15:34;;;;;;;23.73;21.13;;;22.20;99.90;;;;;;5008127;28;20961;-68
2023/09/08 07:18:00;;;;;;;22.00;19.80;;;22.30;99.90;;;;;;5012371;28;20210;-69
2023/09/08 07:20:26;;;;;;;27.77;24.87;;;22.40;99.90;;;;;;5010889;28;20429;-68
2023/09/08 07:22:51;;;;;;;15.80;14.27;;;22.50;99.90;;;;;;5011769;28;20179;-69
2023/09/08 07:25:17;;;;;;;15.97;14.20;;;22.60;99.90;;;;;;5012044;28;20225;-68
2023/09/08 07:27:43;;;;;;;16.60;13.30;;;22.60;99.90;;;;;;5011226;28;20179;-66
2023/09/08 07:30:09;;;;;;;20.07;17.70;;;22.60;99.90;;;;;;5010530;28;20183;-65
2023/09/08 07:32:35;;;;;;;19.30;17.17;;;22.60;99.90;;;;;;5012846;28;20176;-66
2023/09/08 07:35:00;;;;;;;19.57;14.97;;;22.40;99.90;;;;;;5011416;28;20437;-65
2023/09/08 07:37:26;;;;;;;28.50;22.80;;;22.50;99.90;;;;;;5008522;28;20238;-65
2023/09/08 07:39:52;;;;;;;15.17;13.80;;;22.50;99.90;;;;;;5012152;28;20686;-66
2023/09/08 07:42:18;;;;;;;19.70;17.70;;;22.50;99.90;;;;;;5010809;28;20183;-65
2023/09/08 07:44:45;;;;;;;15.27;13.30;;;22.60;99.90;;;;;;5012131;28;20175;-66
2023/09/08 07:47:10;;;;;;;14.40;12.90;;;22.60;99.90;;;;;;4986341;28;20432;-65
2023/09/08 07:49:36;;;;;;;36.73;30.60;;;22.70;99.90;;;;;;5014194;28;20429;-66
2023/09/08 07:52:04;;;;;;;17.27;15.60;;;22.70;99.90;;;;;;5014521;28;20190;-65
2023/09/08 07:54:30;;;;;;;17.90;16.27;;;22.60;99.90;;;;;;5012976;28;20244;-65
2023/09/08 07:56:56;;;;;;;15.80;14.40;;;22.70;99.90;;;;;;5015830;28;20512;-65
2023/09/08 07:59:22;;;;;;;12.90;11.60;;;22.60;99.90;;;;;;5013604;28;20508;-65
2023/09/08 08:01:47;;;;;;;12.20;11.10;;;22.60;99.90;;;;;;5010279;28;20648;-65
2023/09/08 08:04:13;;;;;;;14.63;13.23;;;22.60;99.90;;;;;;5012681;28;20746;-66
2023/09/08 08:06:39;;;;;;;10.93;9.83;;;22.60;99.90;;;;;;5015192;28;20324;-70
2023/09/08 08:09:05;;;;;;;12.27;11.23;;;22.50;99.90;;;;;;5015499;28;20211;-73
2023/09/08 08:11:31;;;;;;;514.67;416.63;;;22.50;99.90;;;;;;5015351;28;20186;-73
2023/09/08 08:13:56;;;;;;;454.17;385.83;;;22.60;99.90;;;;;;4997297;28;20979;-71
2023/09/08 08:16:23;;;;;;;49.80;43.90;;;22.60;99.90;;;;;;5015374;28;20205;-73
2023/09/08 08:18:49;;;;;;;24.00;21.60;;;22.70;99.90;;;;;;4996612;28;20682;-73
2023/09/08 08:21:14;;;;;;;16.57;14.97;;;22.70;99.90;;;;;;5000667;28;20443;-72
2023/09/08 08:23:40;;;;;;;121.67;109.03;;;22.80;99.90;;;;;;5015594;28;20509;-72
2023/09/08 08:26:06;;;;;;;116.00;98.27;;;22.80;99.90;;;;;;5014946;28;20245;-72
2023/09/08 08:28:32;;;;;;;19.07;17.27;;;22.80;99.90;;;;;;5014353;28;20616;-72
2023/09/08 08:30:58;;;;;;;11.90;10.90;;;22.80;99.90;;;;;;5012346;28;20529;-72
2023/09/08 08:33:25;;;;;;;10.37;9.57;;;22.80;99.90;;;;;;5007077;28;20183;-73
2023/09/08 08:35:52;;;;;;;9.60;8.70;;;22.90;99.90;;;;;;4995810;28;20176;-73
2023/09/08 08:38:19;;;;;;;9.80;9.10;;;23.00;99.90;;;;;;5006548;28;20481;-73
2023/09/08 08:40:45;;;;;;;9.63;8.93;;;23.10;99.90;;;;;;5012751;28;20956;-73
2023/09/08 08:43:11;;;;;;;9.23;8.50;;;23.20;99.90;;;;;;5013500;28;20517;-68
2023/09/08 08:45:38;;;;;;;11.60;10.60;;;23.30;99.90;;;;;;5014804;28;20983;-73
2023/09/08 08:48:05;;;;;;;12.27;11.37;;;23.30;99.90;;;;;;5015629;28;20771;-74
2023/09/08 08:50:32;;;;;;;10.27;9.47;;;23.40;99.90;;;;;;4995061;28;20438;-74
2023/09/08 08:52:58;;;;;;;47.93;42.90;;;23.50;99.90;;;;;;5004026;28;20909;-74
2023/09/08 08:55:25;;;;;;;17.90;16.27;;;23.50;99.90;;;;;;5012011;28;20409;-74
2023/09/08 08:57:52;;;;;;;24.63;21.07;;;23.50;99.90;;;;;;4995420;28;20454;-74
2023/09/08 09:00:18;;;;;;;12.13;11.13;;;23.60;99.90;;;;;;5010195;28;20430;-73
2023/09/08 09:02:47;;;;;;;10.63;9.73;;;23.80;99.90;;;;;;5014530;28;20436;-73
2023/09/08 09:05:13;;;;;;;11.40;8.83;;;23.80;99.90;;;;;;5014025;28;20417;-73
2023/09/08 09:07:42;;;;;;;10.20;9.50;;;23.90;99.90;;;;;;5012784;28;20560;-77
2023/09/08 09:10:10;;;;;;;12.63;10.67;;;24.10;99.90;;;;;;5013368;28;20449;-77
2023/09/08 09:12:39;;;;;;;9.97;8.93;;;24.20;99.90;;;;;;5015177;28;20413;-77
2023/09/08 09:15:06;;;;;;;12.43;11.47;;;24.40;99.90;;;;;;5014110;28;20421;-60
2023/09/08 09:17:36;;;;;;;14.17;13.10;;;24.50;99.90;;;;;;5013404;28;20461;-60
2023/09/08 09:20:20;;;;;;;65.37;58.73;;;24.70;99.90;;;;;;5015032;28;20420;-60
2023/09/08 09:22:47;;;;;;;68.93;62.03;;;24.90;99.90;;;;;;5012468;28;20949;-60
2023/09/08 09:25:24;;;;;;;32.40;29.30;;;25.10;99.90;;;;;;5012076;28;20430;-61
2023/09/08 09:28:01;;;;;;;15.40;14.10;;;25.40;99.90;;;;;;5012041;28;20429;-61
2023/09/08 09:30:27;;;;;;;9.83;9.20;;;25.70;99.90;;;;;;5012473;28;20512;-61
2023/09/08 09:33:03;;;;;;;10.43;9.73;;;26.00;99.90;;;;;;5013257;28;20430;-60
2023/09/08 09:35:46;;;;;;;8.80;8.20;;;26.30;99.90;;;;;;5012553;28;20579;-61
2023/09/08 09:38:12;;;;;;;9.60;8.90;;;26.70;99.90;;;;;;4997577;28;20474;-61
2023/09/08 09:40:39;;;;;;;11.50;10.70;;;27.00;99.90;;;;;;5009282;28;21048;-64
2023/09/08 09:43:06;;;;;;;8.90;8.20;;;27.20;99.90;;;;;;5013147;28;20509;-63
2023/09/08 09:45:34;;;;;;;10.10;9.50;;;27.50;99.90;;;;;;5011644;28;20426;-64
2023/09/08 09:48:00;;;;;;;8.77;8.17;;;27.80;98.70;;;;;;5012945;28;20436;-63
2023/09/08 09:50:34;;;;;;;8.37;7.77;;;28.10;97.50;;;;;;5013023;28;20433;-63
2023/09/08 09:53:14;;;;;;;8.00;7.40;;;28.30;96.50;;;;;;5009784;28;20426;-63
2023/09/08 09:55:42;;;;;;;8.90;8.40;;;28.70;97.90;;;;;;5012293;28;21113;-63
2023/09/08 09:58:10;;;;;;;9.20;8.60;;;28.90;91.70;;;;;;5012023;28;20477;-64
2023/09/08 10:00:37;;;;;;;8.23;7.73;;;29.10;92.60;;;;;;5011744;28;20787;-63
2023/09/08 10:03:05;;;;;;;8.10;7.60;;;29.40;93.30;;;;;;5012327;28;20488;-64
2023/09/08 10:05:31;;;;;;;10.50;9.90;;;29.70;92.30;;;;;;5012950;28;20421;-61
2023/09/08 10:07:58;;;;;;;9.33;8.73;;;30.00;91.20;;;;;;5011826;28;20437;-61
2023/09/08 10:10:27;;;;;;;10.07;9.27;;;30.20;91.50;;;;;;5011354;28;20179;-61
2023/09/08 10:12:55;;;;;;;9.87;9.10;;;30.50;90.30;;;;;;5001714;28;20427;-65
2023/09/08 10:15:23;;;;;;;8.30;7.80;;;30.60;83.60;;;;;;5011845;28;20517;-62
2023/09/08 10:17:57;;;;;;;7.83;7.27;;;30.70;82.80;;;;;;5012492;28;20515;-61
2023/09/08 10:20:28;;;;;;;8.30;7.80;;;31.00;87.80;;;;;;5012183;28;20437;-61
2023/09/08 10:23:27;;;;;;;9.47;8.87;;;31.20;82.80;;;;;;5013102;28;20434;-61
2023/09/08 10:25:59;;;;;;;8.33;7.63;;;31.30;82.50;;;;;;4994242;28;20451;-61
2023/09/08 10:28:26;;;;;;;7.30;6.73;;;31.50;79.20;;;;;;5001268;28;20801;-61
2023/09/08 10:30:53;;;;;;;7.30;6.77;;;31.40;77.00;;;;;;5013734;28;20545;-61
2023/09/08 10:33:19;;;;;;;8.23;7.70;;;31.30;73.80;;;;;;5012007;28;20429;-61
2023/09/08 10:35:46;;;;;;;8.30;7.70;;;31.30;76.40;;;;;;5012631;28;20434;-61
2023/09/08 10:38:31;;;;;;;9.13;8.63;;;31.50;79.20;;;;;;5012334;28;20495;-61
2023/09/08 10:41:15;;;;;;;6.93;6.43;;;31.60;77.20;;;;;;5012350;28;20414;-61
2023/09/08 10:43:46;;;;;;;8.57;8.07;;;31.80;73.60;;;;;;4994073;28;20445;-61
2023/09/08 10:46:22;;;;;;;8.20;7.70;;;32.00;75.30;;;;;;5003963;28;20466;-61
2023/09/08 10:48:48;;;;;;;8.60;8.00;;;32.20;73.00;;;;;;5012433;28;20429;-61
2023/09/08 10:51:15;;;;;;;7.70;7.20;;;32.30;74.10;;;;;;4995771;28;20432;-61
2023/09/08 10:53:41;;;;;;;7.67;7.10;;;32.50;72.00;;;;;;5011543;28;20262;-61
2023/09/08 10:56:07;;;;;;;10.10;9.17;;;32.40;65.90;;;;;;5012232;28;20561;-61
2023/09/08 10:58:38;;;;;;;8.40;7.57;;;32.10;67.70;;;;;;5012203;28;20206;-61
2023/09/08 11:01:04;;;;;;;7.57;7.17;;;32.20;71.70;;;;;;5012130;28;20712;-61
2023/09/08 11:03:37;;;;;;;8.17;7.67;;;32.40;66.80;;;;;;5011513;28;20433;-61
2023/09/08 11:06:03;;;;;;;8.07;7.67;;;32.40;66.40;;;;;;5013141;28;20472;-61
2023/09/08 11:08:30;;;;;;;9.97;9.37;;;32.30;66.20;;;;;;5011605;28;20434;-61
2023/09/08 11:10:56;;;;;;;8.93;8.23;;;32.20;66.70;;;;;;5012001;28;20441;-61
2023/09/08 11:13:22;;;;;;;7.93;7.43;;;32.30;64.10;;;;;;5011016;28;20460;-62
2023/09/08 11:15:50;;;;;;;7.80;7.40;;;32.40;65.50;;;;;;5013129;28;20406;-61
2023/09/08 11:18:16;;;;;;;7.83;7.43;;;32.40;65.90;;;;;;5010324;28;20217;-61
2023/09/08 11:20:44;;;;;;;7.53;7.13;;;32.50;64.00;;;;;;5010253;28;20410;-62
2023/09/08 11:23:10;;;;;;;7.87;7.37;;;32.60;64.70;;;;;;5012850;28;20174;-64
2023/09/08 11:25:36;;;;;;;7.73;7.23;;;32.80;64.00;;;;;;5011223;28;20472;-62
2023/09/08 11:28:03;;;;;;;7.93;7.30;;;32.70;61.70;;;;;;5011869;28;20520;-62
2023/09/08 11:30:28;;;;;;;7.80;7.30;;;32.60;63.30;;;;;;5007434;28;20461;-61
2023/09/08 11:32:54;;;;;;;8.40;7.60;;;32.70;62.80;;;;;;5013015;28;20921;-61
2023/09/08 11:35:20;;;;;;;7.23;6.83;;;32.80;66.00;;;;;;5011426;28;20430;-62
2023/09/08 11:37:46;;;;;;;7.23;6.77;;;32.90;64.60;;;;;;5011307;28;20635;-61
2023/09/08 11:40:13;;;;;;;7.00;6.50;;;33.00;66.00;;;;;;5011830;28;20414;-61
2023/09/08 11:42:43;;;;;;;7.27;6.87;;;33.10;66.20;;;;;;5003615;28;20724;-61
2023/09/08 11:45:21;;;;;;;7.73;7.13;;;33.20;64.70;;;;;;5011053;28;20422;-61
2023/09/08 11:47:49;;;;;;;7.60;7.20;;;33.30;61.30;;;;;;5010603;28;20437;-61
2023/09/08 11:50:17;;;;;;;6.60;6.20;;;33.30;61.70;;;;;;5012937;28;20410;-61
2023/09/08 11:52:45;;;;;;;7.23;6.77;;;33.20;59.10;;;;;;5010875;28;20469;-61
2023/09/08 11:55:12;;;;;;;8.57;8.00;;;33.20;59.10;;;;;;5009586;28;20976;-61
2023/09/08 11:57:40;;;;;;;11.87;11.17;;;33.20;60.70;;;;;;5009857;28;20497;-61
2023/09/08 12:00:09;;;;;;;7.43;6.73;;;33.20;63.60;;;;;;5026756;28;20467;-61
2023/09/08 12:02:36;;;;;;;9.87;9.27;;;33.30;63.40;;;;;;5011947;28;20784;-61
2023/09/08 12:05:03;;;;;;;7.67;7.07;;;33.30;61.50;;;;;;5011488;28;20980;-60
2023/09/08 12:07:29;;;;;;;6.67;6.27;;;33.40;59.70;;;;;;5011596;28;20492;-61
2023/09/08 12:09:55;;;;;;;10.23;9.67;;;33.50;59.30;;;;;;5012548;28;20414;-62
2023/09/08 12:12:21;;;;;;;7.07;6.60;;;33.30;58.70;;;;;;4994891;28;20425;-61
2023/09/08 12:14:47;;;;;;;9.10;8.30;;;33.00;56.70;;;;;;4994887;28;20533;-61
2023/09/08 12:17:16;;;;;;;7.60;7.00;;;32.80;59.50;;;;;;5006915;28;20429;-62
2023/09/08 12:19:42;;;;;;;7.90;7.40;;;32.80;58.60;;;;;;4975747;28;20200;-62
2023/09/08 12:22:11;;;;;;;9.77;9.17;;;32.70;61.00;;;;;;4991477;28;20417;-60
2023/09/08 12:24:48;;;;;;;6.87;6.47;;;32.60;58.70;;;;;;5004165;28;20269;-61
2023/09/08 12:27:15;;;;;;;9.00;8.50;;;32.60;59.60;;;;;;5012095;28;20409;-61
2023/09/08 12:29:54;;;;;;;7.33;6.93;;;32.40;57.10;;;;;;5011716;28;20500;-61
2023/09/08 12:32:20;;;;;;;9.27;8.70;;;32.20;58.50;;;;;;5012451;28;20402;-61